East Point, Canada
Current Conditions -  °F | °C
As of 1:10 AM on Thursday 27 Nov 2014 (Local Time) from CYYG Reporting Station
Light Snow Light Snow  
Wind Chill: 21°   Ceiling: 300
Heat Index: 32°   Visibility: 1mi
Dew Point: 32°   Wind: 17mph
Humidity: 100%   Direction: 40°NE
Pressure: 29.92"   Gusts: NA
Location:  46.45°N, 61.97°W
Report Text: CYYG 270510Z 04015KT 1SM R03/4500VP6000FT/U -SNPL OVC003 00/M00 A2992 RMK SN6SF2 SN WET PRESFR SLP132
Loading
Personal Weather Stations






























Interactive Weather Map New forecast layout! Learn more

10-Day Weather Forecast

Advertisements
Track Severe Weather on mobile